createdAt,value
2023-02-21T00:02:07.161Z,11.48
2023-02-21T00:04:53.635Z,12.08
2023-02-21T00:07:40.281Z,11.33
2023-02-21T00:10:28.200Z,10.69
2023-02-21T00:13:14.651Z,10.36
2023-02-21T00:16:01.074Z,10.70
2023-02-21T00:18:47.133Z,12.24
2023-02-21T00:21:33.489Z,11.91
2023-02-21T00:24:19.929Z,11.17
2023-02-21T00:27:06.737Z,10.63
2023-02-21T00:29:53.309Z,10.37
2023-02-21T00:32:40.774Z,11.49
2023-02-21T00:35:27.229Z,12.25
2023-02-21T00:38:13.581Z,11.53
2023-02-21T00:41:00.021Z,10.94
2023-02-21T00:43:53.544Z,10.54
2023-02-21T00:46:39.921Z,10.22
2023-02-21T00:49:26.013Z,10.00
2023-02-21T00:52:12.480Z,10.24
2023-02-21T00:54:59.777Z,11.79
2023-02-21T00:57:46.152Z,11.39
2023-02-21T01:00:42.130Z,10.69
2023-02-21T01:03:29.097Z,10.25
2023-02-21T01:06:16.128Z,10.52
2023-02-21T01:09:04.748Z,11.89
2023-02-21T01:11:51.635Z,11.80
2023-02-21T01:14:37.994Z,10.99
2023-02-21T01:17:29.973Z,10.57
2023-02-21T01:20:19.058Z,12.05
2023-02-21T01:23:05.766Z,12.18
2023-02-21T01:25:51.990Z,11.20
2023-02-21T01:28:39.035Z,10.67
2023-02-21T01:31:25.414Z,11.60
2023-02-21T01:34:11.912Z,13.06
2023-02-21T01:37:01.139Z,11.99
2023-02-21T01:39:47.773Z,10.98
2023-02-21T01:42:34.186Z,10.51
2023-02-21T01:45:46.203Z,11.45
2023-02-21T01:48:38.789Z,12.88
2023-02-21T01:51:28.693Z,11.70
2023-02-21T01:54:16.145Z,10.91
2023-02-21T01:57:04.364Z,10.49
2023-02-21T01:59:50.853Z,11.94
2023-02-21T02:02:53.499Z,12.28
2023-02-21T02:05:40.038Z,11.30
2023-02-21T02:08:26.576Z,11.19
2023-02-21T02:11:26.528Z,12.70
2023-02-21T02:14:12.451Z,12.29
2023-02-21T02:16:55.986Z,11.41
2023-02-21T02:19:38.801Z,12.70
2023-02-21T02:22:06.755Z,12.40
2023-02-21T02:24:44.398Z,11.42
2023-02-21T02:27:24.413Z,11.65
2023-02-21T02:30:26.401Z,13.04
2023-02-21T02:33:17.698Z,12.49
2023-02-21T02:36:13.595Z,11.51
2023-02-21T02:39:22.214Z,12.23
2023-02-21T02:42:07.856Z,13.40
2023-02-21T02:44:40.732Z,12.78
2023-02-21T02:47:15.112Z,11.63
2023-02-21T02:49:45.422Z,12.21
2023-02-21T02:52:13.440Z,13.04
2023-02-21T02:54:41.446Z,13.53
2023-02-21T02:57:13.369Z,13.01
2023-02-21T02:59:46.620Z,12.06
2023-02-21T03:02:32.882Z,12.83
2023-02-21T03:05:38.854Z,13.66
2023-02-21T03:08:33.723Z,13.64
2023-02-21T03:11:18.006Z,11.89
2023-02-21T03:13:56.088Z,12.45
2023-02-21T03:16:33.444Z,13.09
2023-02-21T03:19:10.371Z,13.38
2023-02-21T03:21:43.556Z,13.91
2023-02-21T03:24:14.764Z,14.00
2023-02-21T03:26:45.598Z,14.19
2023-02-21T03:29:39.119Z,12.61
2023-02-21T03:32:18.550Z,12.73
2023-02-21T03:34:48.078Z,13.50
2023-02-21T03:37:36.094Z,14.13
2023-02-21T03:40:07.902Z,14.22
2023-02-21T03:42:36.515Z,14.03
2023-02-21T03:45:04.929Z,13.81
2023-02-21T03:47:33.327Z,13.78
2023-02-21T03:50:01.382Z,13.91
2023-02-21T03:52:29.420Z,14.47
2023-02-21T03:54:57.657Z,13.90
2023-02-21T03:57:26.987Z,12.61
2023-02-21T03:59:54.953Z,13.10
2023-02-21T04:02:23.081Z,13.73
2023-02-21T04:04:51.330Z,14.04
2023-02-21T04:07:22.111Z,13.55
2023-02-21T04:09:50.891Z,14.53
2023-02-21T04:12:27.771Z,13.56
2023-02-21T04:14:56.676Z,13.00
2023-02-21T04:17:25.871Z,13.69
2023-02-21T04:19:55.379Z,14.30
2023-02-21T04:22:24.113Z,14.24
2023-02-21T04:24:52.249Z,13.86
2023-02-21T04:27:21.181Z,14.47
2023-02-21T04:29:54.497Z,14.50
2023-02-21T04:32:22.782Z,14.34
2023-02-21T04:34:50.928Z,13.85
2023-02-21T04:37:19.439Z,13.64
2023-02-21T04:39:48.270Z,13.87
2023-02-21T04:42:17.782Z,13.57
2023-02-21T04:44:58.286Z,13.80
2023-02-21T04:47:27.848Z,14.34
2023-02-21T04:49:55.781Z,13.84
2023-02-21T04:52:23.693Z,13.77
2023-02-21T04:54:51.693Z,13.73
2023-02-21T04:57:19.942Z,14.06
2023-02-21T04:59:48.254Z,14.27
2023-02-21T05:02:16.223Z,14.26
2023-02-21T05:04:44.683Z,14.52
2023-02-21T05:07:12.670Z,14.18
2023-02-21T05:09:40.587Z,13.70
2023-02-21T05:12:12.136Z,13.48
2023-02-21T05:14:41.062Z,14.06
2023-02-21T05:17:09.448Z,14.02
2023-02-21T05:19:37.396Z,14.10
2023-02-21T05:22:07.569Z,13.79
2023-02-21T05:24:42.609Z,14.07
2023-02-21T05:27:11.610Z,13.47
2023-02-21T05:29:39.478Z,13.63
2023-02-21T05:32:07.488Z,13.91
2023-02-21T05:34:35.513Z,14.18
2023-02-21T05:37:03.554Z,13.84
2023-02-21T05:39:31.614Z,13.18
2023-02-21T05:41:59.543Z,13.28
2023-02-21T05:44:27.560Z,13.83
2023-02-21T05:46:55.461Z,13.27
2023-02-21T05:49:23.409Z,13.43
2023-02-21T05:51:58.169Z,14.09
2023-02-21T05:54:26.818Z,14.37
2023-02-21T05:56:54.808Z,14.47
2023-02-21T05:59:22.926Z,14.20
2023-02-21T06:01:51.696Z,14.61
2023-02-21T06:04:19.680Z,13.93
2023-02-21T06:06:47.720Z,12.38
2023-02-21T06:09:16.143Z,13.09
2023-02-21T06:11:44.064Z,13.33
2023-02-21T06:14:17.805Z,13.90
2023-02-21T06:17:07.190Z,14.32
2023-02-21T06:19:36.974Z,14.46
2023-02-21T06:22:06.631Z,14.01
2023-02-21T06:24:34.744Z,12.36
2023-02-21T06:27:02.793Z,13.23
2023-02-21T06:29:30.784Z,13.64
2023-02-21T06:31:59.832Z,13.92
2023-02-21T06:34:28.750Z,14.01
2023-02-21T06:36:57.067Z,13.52
2023-02-21T06:39:25.121Z,13.54
2023-02-21T06:41:53.419Z,14.06
2023-02-21T06:44:21.350Z,14.15
2023-02-21T06:46:54.877Z,13.69
2023-02-21T06:49:22.963Z,14.38
2023-02-21T06:51:50.965Z,13.19
2023-02-21T06:54:18.925Z,12.73
2023-02-21T06:56:46.938Z,12.65
2023-02-21T06:59:14.876Z,12.84
2023-02-21T07:01:43.170Z,13.25
2023-02-21T07:04:11.216Z,13.90
2023-02-21T07:06:39.567Z,13.52
2023-02-21T07:09:07.773Z,13.29
2023-02-21T07:11:36.045Z,13.68
2023-02-21T07:14:04.329Z,13.90
2023-02-21T07:16:32.286Z,13.97
2023-02-21T07:19:00.337Z,13.87
2023-02-21T07:21:28.267Z,13.86
2023-02-21T07:23:56.769Z,14.14
2023-02-21T07:26:24.793Z,14.01
2023-02-21T07:28:52.818Z,13.84
2023-02-21T07:31:21.162Z,13.57
2023-02-21T07:33:49.359Z,13.35
2023-02-21T07:36:17.471Z,13.78
2023-02-21T07:38:45.507Z,13.32
2023-02-21T07:41:15.363Z,13.75
2023-02-21T07:43:43.543Z,13.77
2023-02-21T07:46:13.324Z,14.10
2023-02-21T07:48:41.223Z,14.23
2023-02-21T07:51:10.203Z,14.57
2023-02-21T07:53:38.129Z,14.44
2023-02-21T07:56:06.248Z,14.20
2023-02-21T07:58:37.459Z,13.82
2023-02-21T08:01:07.102Z,14.34
2023-02-21T08:03:35.244Z,14.48
2023-02-21T08:10:22.301Z,13.59
2023-02-21T08:12:50.745Z,14.43
2023-02-21T08:15:19.187Z,14.62
2023-02-21T08:17:51.040Z,14.37
2023-02-21T08:20:20.303Z,13.21
2023-02-21T08:22:48.352Z,13.65
2023-02-21T08:25:16.934Z,13.75
2023-02-21T08:27:46.501Z,14.80
2023-02-21T08:30:17.309Z,14.40
2023-02-21T08:32:48.710Z,13.06
2023-02-21T08:35:18.400Z,13.26
2023-02-21T08:37:48.117Z,13.66
2023-02-21T08:40:19.578Z,14.33
2023-02-21T08:42:52.343Z,14.08
2023-02-21T08:45:22.518Z,12.84
2023-02-21T08:47:51.600Z,13.94
2023-02-21T08:50:21.407Z,14.23
2023-02-21T08:52:50.844Z,14.68
2023-02-21T08:55:19.890Z,13.10
2023-02-21T08:57:49.871Z,12.77
2023-02-21T09:00:19.617Z,13.76
2023-02-21T09:02:50.039Z,14.49
2023-02-21T09:05:24.776Z,12.91
2023-02-21T09:07:59.034Z,12.89
2023-02-21T09:10:31.869Z,13.59
2023-02-21T09:13:01.017Z,14.08
2023-02-21T09:15:29.178Z,14.56
2023-02-21T09:17:57.196Z,13.71
2023-02-21T09:20:29.771Z,12.67
2023-02-21T09:22:57.954Z,13.59
2023-02-21T09:25:26.090Z,14.20
2023-02-21T09:27:54.947Z,14.52
2023-02-21T09:30:26.879Z,14.50
2023-02-21T09:32:56.712Z,14.44
2023-02-21T09:35:24.708Z,14.54
2023-02-21T09:37:54.571Z,14.61
2023-02-21T09:40:41.326Z,12.91
2023-02-21T09:43:15.942Z,13.63
2023-02-21T09:45:44.886Z,13.98
2023-02-21T09:48:17.457Z,14.22
2023-02-21T09:51:02.523Z,14.55
2023-02-21T09:54:23.999Z,13.15
2023-02-21T09:57:32.793Z,13.75
2023-02-21T10:00:15.563Z,14.16
2023-02-21T10:02:50.755Z,14.45
2023-02-21T10:05:40.628Z,13.81
2023-02-21T10:08:14.228Z,13.06
2023-02-21T10:10:53.760Z,13.62
2023-02-21T10:13:43.461Z,14.55
2023-02-21T10:16:17.206Z,13.76
2023-02-21T10:18:54.281Z,13.13
2023-02-21T10:21:30.988Z,14.58
2023-02-21T10:24:04.876Z,15.00
2023-02-21T10:26:41.209Z,13.37
2023-02-21T10:29:24.057Z,12.81
2023-02-21T10:32:01.318Z,13.96
2023-02-21T10:34:31.642Z,14.70
2023-02-21T10:37:07.059Z,13.77
2023-02-21T10:39:43.618Z,13.04
2023-02-21T10:42:26.637Z,14.31
2023-02-21T10:44:55.920Z,14.54
2023-02-21T10:47:34.387Z,13.59
2023-02-21T10:50:07.136Z,12.84
2023-02-21T10:52:47.752Z,13.88
2023-02-21T10:55:32.640Z,14.73
2023-02-21T10:58:11.811Z,13.50
2023-02-21T11:00:48.582Z,12.88
2023-02-21T11:03:20.249Z,13.80
2023-02-21T11:05:53.255Z,14.07
2023-02-21T11:08:42.011Z,14.14
2023-02-21T11:12:28.658Z,12.81
2023-02-21T11:15:10.136Z,13.77
2023-02-21T11:17:38.139Z,14.32
2023-02-21T11:20:20.630Z,14.67
2023-02-21T11:22:49.911Z,14.42
2023-02-21T11:25:41.701Z,13.09
2023-02-21T11:28:43.659Z,13.65
2023-02-21T11:31:29.468Z,14.57
2023-02-21T11:34:02.332Z,14.61
2023-02-21T11:36:35.359Z,14.97
2023-02-21T11:39:23.605Z,14.96
2023-02-21T11:41:57.533Z,13.22
2023-02-21T11:44:38.127Z,13.75
2023-02-21T11:47:15.039Z,13.83
2023-02-21T11:49:54.597Z,14.81
2023-02-21T11:52:32.621Z,13.88
2023-02-21T11:55:00.733Z,12.63
2023-02-21T11:57:49.550Z,13.52
2023-02-21T12:00:39.951Z,13.83
2023-02-21T12:03:10.921Z,14.11
2023-02-21T12:05:50.754Z,14.60
2023-02-21T12:08:40.889Z,14.02
2023-02-21T12:12:02.156Z,12.67
2023-02-21T12:14:48.131Z,13.65
2023-02-21T12:17:44.825Z,13.89
2023-02-21T12:20:49.929Z,13.99
2023-02-21T12:23:23.895Z,13.97
2023-02-21T12:25:58.072Z,14.01
2023-02-21T12:28:34.830Z,15.16
2023-02-21T12:31:26.967Z,15.31
2023-02-21T12:34:20.096Z,15.49
2023-02-21T12:37:09.557Z,14.25
2023-02-21T12:39:59.278Z,13.81
2023-02-21T12:42:28.476Z,14.74
2023-02-21T12:45:35.226Z,15.45
2023-02-21T12:48:17.104Z,14.37
2023-02-21T12:50:55.527Z,13.19
2023-02-21T12:53:36.103Z,12.47
2023-02-21T12:56:11.279Z,12.51
2023-02-21T12:58:49.894Z,13.53
2023-02-21T13:01:36.897Z,12.92
2023-02-21T13:04:32.929Z,11.96
2023-02-21T13:07:25.522Z,11.58
2023-02-21T13:10:06.709Z,12.86
2023-02-21T13:12:59.028Z,13.29
2023-02-21T13:15:30.235Z,12.26
2023-02-21T13:18:16.248Z,11.70
2023-02-21T13:20:53.094Z,12.86
2023-02-21T13:23:53.491Z,13.52
2023-02-21T13:26:39.951Z,12.20
2023-02-21T13:29:25.175Z,11.79
2023-02-21T13:32:17.100Z,13.16
2023-02-21T13:34:48.764Z,13.57
2023-02-21T13:37:20.596Z,12.80
2023-02-21T13:39:58.345Z,11.90
2023-02-21T13:42:29.608Z,12.25
2023-02-21T13:45:12.834Z,13.81
2023-02-21T13:47:52.904Z,13.98
2023-02-21T13:50:39.308Z,12.67
2023-02-21T13:53:23.917Z,12.45
2023-02-21T13:56:00.795Z,14.11
2023-02-21T13:58:45.243Z,13.92
2023-02-21T14:01:29.456Z,12.63
2023-02-21T14:03:58.189Z,11.92
2023-02-21T14:06:37.294Z,12.20
2023-02-21T14:09:05.523Z,13.24
2023-02-21T14:11:43.894Z,12.39
2023-02-21T14:14:34.750Z,11.59
2023-02-21T14:17:06.240Z,12.17
2023-02-21T14:19:40.448Z,13.26
2023-02-21T14:22:24.897Z,12.75
2023-02-21T14:25:07.982Z,11.80
2023-02-21T14:27:38.036Z,12.26
2023-02-21T14:30:12.449Z,13.45
2023-02-21T14:32:47.802Z,12.73
2023-02-21T14:35:34.101Z,11.94
2023-02-21T14:38:23.232Z,12.67
2023-02-21T14:41:05.943Z,14.06
2023-02-21T14:43:39.943Z,12.79
2023-02-21T14:46:49.588Z,11.96
2023-02-21T14:49:47.303Z,12.78
2023-02-21T14:52:51.222Z,13.33
2023-02-21T14:55:55.890Z,12.25
2023-02-21T14:58:36.122Z,12.29
2023-02-21T15:01:42.211Z,13.89
2023-02-21T15:04:20.559Z,13.60
2023-02-21T15:07:10.409Z,12.82
2023-02-21T15:09:38.939Z,12.52
2023-02-21T15:12:14.474Z,12.49
2023-02-21T15:14:52.771Z,12.49
2023-02-21T15:17:24.230Z,12.18
2023-02-21T15:20:10.302Z,11.87
2023-02-21T15:22:38.325Z,11.82
2023-02-21T15:25:09.139Z,11.60
2023-02-21T15:27:59.786Z,11.25
2023-02-21T15:30:35.869Z,12.21
2023-02-21T15:33:20.605Z,13.12
2023-02-21T15:35:58.630Z,12.25
2023-02-21T15:38:32.111Z,11.44
2023-02-21T15:41:49.576Z,11.51
2023-02-21T15:44:23.119Z,13.09
2023-02-21T15:47:09.431Z,12.40
2023-02-21T15:49:47.811Z,11.48
2023-02-21T15:52:29.787Z,11.78
2023-02-21T15:55:15.977Z,12.75
2023-02-21T15:57:45.026Z,11.97
2023-02-21T16:00:26.055Z,11.33
2023-02-21T16:03:32.373Z,11.42
2023-02-21T16:06:27.816Z,13.02
2023-02-21T16:09:05.908Z,12.68
2023-02-21T16:12:02.723Z,11.58
2023-02-21T16:14:43.417Z,10.95
2023-02-21T16:17:23.616Z,12.15
2023-02-21T16:19:56.232Z,12.26
2023-02-21T16:22:43.110Z,11.45
2023-02-21T16:25:25.455Z,10.82
2023-02-21T16:27:56.670Z,11.97
2023-02-21T16:30:31.001Z,12.84
2023-02-21T16:33:06.010Z,11.98
2023-02-21T16:35:34.492Z,11.24
2023-02-21T16:38:02.534Z,11.96
2023-02-21T16:40:33.653Z,12.93
2023-02-21T16:43:03.905Z,12.38
2023-02-21T16:45:32.790Z,11.46
2023-02-21T16:48:06.761Z,12.09
2023-02-21T16:50:38.190Z,12.94
2023-02-21T16:53:07.420Z,12.35
2023-02-21T16:55:35.396Z,11.42
2023-02-21T16:58:07.498Z,11.09
2023-02-21T17:00:35.672Z,12.26
2023-02-21T17:03:04.043Z,12.58
2023-02-21T17:05:36.003Z,11.70
2023-02-21T17:08:04.334Z,11.01
2023-02-21T17:10:32.910Z,11.93
2023-02-21T17:13:03.438Z,12.62
2023-02-21T17:15:32.257Z,11.96
2023-02-21T17:18:00.801Z,11.12
2023-02-21T17:20:29.545Z,12.06
2023-02-21T17:23:01.190Z,12.55
2023-02-21T17:25:30.245Z,12.12
2023-02-21T17:27:58.337Z,11.27
2023-02-21T17:30:27.045Z,10.93
2023-02-21T17:32:55.624Z,12.39
2023-02-21T17:35:24.787Z,13.24
2023-02-21T17:37:53.065Z,12.27
2023-02-21T17:40:22.866Z,11.34
2023-02-21T17:42:50.903Z,11.61
2023-02-21T17:45:21.045Z,12.84
2023-02-21T17:47:50.453Z,12.48
2023-02-21T17:50:19.353Z,11.51
2023-02-21T17:52:48.305Z,11.48
2023-02-21T17:55:20.350Z,12.80
2023-02-21T17:57:48.807Z,12.99
2023-02-21T18:00:21.690Z,11.87
2023-02-21T18:02:50.412Z,11.65
2023-02-21T18:05:19.282Z,12.50
2023-02-21T18:07:52.713Z,12.79
2023-02-21T18:10:23.482Z,11.72
2023-02-21T18:12:52.777Z,11.41
2023-02-21T18:15:22.583Z,12.43
2023-02-21T18:17:50.712Z,12.52
2023-02-21T18:20:19.430Z,11.56
2023-02-21T18:22:47.890Z,10.96
2023-02-21T18:25:17.752Z,11.37
2023-02-21T18:27:46.176Z,12.07
2023-02-21T18:30:16.189Z,11.70
2023-02-21T18:32:46.237Z,10.92
2023-02-21T18:35:18.568Z,11.30
2023-02-21T18:37:47.322Z,12.11
2023-02-21T18:40:17.782Z,12.49
2023-02-21T18:42:46.255Z,11.67
2023-02-21T18:45:14.833Z,10.66
2023-02-21T18:47:43.030Z,10.95
2023-02-21T18:50:11.280Z,11.82
2023-02-21T18:52:39.208Z,11.48
2023-02-21T18:55:07.468Z,10.56
2023-02-21T18:57:35.521Z,10.27
2023-02-21T19:00:06.643Z,11.13
2023-02-21T19:02:34.656Z,11.41
2023-02-21T19:05:02.766Z,10.64
2023-02-21T19:07:32.159Z,9.78
2023-02-21T19:10:00.256Z,9.92
2023-02-21T19:12:28.287Z,10.96
2023-02-21T19:14:56.149Z,10.90
2023-02-21T19:17:24.418Z,9.85
2023-02-21T19:19:52.694Z,9.18
2023-02-21T19:22:20.912Z,10.00
2023-02-21T19:24:48.920Z,10.72
2023-02-21T19:27:16.982Z,10.21
2023-02-21T19:29:47.494Z,9.18
2023-02-21T19:32:15.993Z,9.21
2023-02-21T19:34:44.513Z,10.32
2023-02-21T19:37:12.506Z,10.62
2023-02-21T19:39:40.482Z,9.71
2023-02-21T19:42:09.285Z,8.89
2023-02-21T19:44:37.749Z,9.52
2023-02-21T19:47:05.867Z,10.24
2023-02-21T19:49:35.079Z,9.64
2023-02-21T19:52:03.298Z,8.69
2023-02-21T19:54:31.651Z,9.10
2023-02-21T19:57:00.129Z,10.07
2023-02-21T19:59:29.347Z,9.71
2023-02-21T20:01:57.353Z,8.67
2023-02-21T20:04:26.028Z,8.75
2023-02-21T20:06:55.938Z,9.66
2023-02-21T20:09:24.016Z,9.50
2023-02-21T20:11:52.002Z,8.64
2023-02-21T20:14:19.962Z,8.37
2023-02-21T20:16:48.066Z,9.46
2023-02-21T20:19:16.099Z,9.63
2023-02-21T20:21:45.199Z,8.79
2023-02-21T20:24:13.097Z,8.09
2023-02-21T20:26:41.096Z,8.95
2023-02-21T20:29:09.166Z,9.97
2023-02-21T20:31:38.846Z,9.26
2023-02-21T20:34:07.054Z,8.25
2023-02-21T20:36:38.658Z,8.06
2023-02-21T20:39:18.580Z,9.51
2023-02-21T20:41:46.840Z,10.19
2023-02-21T20:44:17.226Z,9.31
2023-02-21T20:46:45.373Z,8.39
2023-02-21T20:49:14.312Z,7.75
2023-02-21T20:51:43.749Z,7.61
2023-02-21T20:54:19.871Z,9.12
2023-02-21T20:56:51.086Z,10.24
2023-02-21T20:59:28.165Z,9.44
2023-02-21T21:01:58.090Z,8.42
2023-02-21T21:04:28.018Z,7.72
2023-02-21T21:06:58.666Z,7.23
2023-02-21T21:09:34.433Z,7.33
2023-02-21T21:12:09.826Z,9.12
2023-02-21T21:14:41.694Z,10.62
2023-02-21T21:17:13.353Z,10.89
2023-02-21T21:19:43.479Z,9.74
2023-02-21T21:22:15.196Z,8.63
2023-02-21T21:24:43.115Z,7.83
2023-02-21T21:27:14.800Z,7.28
2023-02-21T21:29:44.967Z,6.85
2023-02-21T21:32:21.904Z,6.47
2023-02-21T21:34:52.688Z,6.55
2023-02-21T21:37:24.470Z,8.29
2023-02-21T21:39:56.600Z,10.03
2023-02-21T21:42:28.902Z,10.51
2023-02-21T21:44:57.419Z,9.32
2023-02-21T21:47:28.530Z,8.21
2023-02-21T21:49:56.439Z,7.47
2023-02-21T21:52:24.710Z,6.97
2023-02-21T21:54:52.666Z,6.87
2023-02-21T21:57:22.826Z,8.44
2023-02-21T21:59:50.856Z,9.97
2023-02-21T22:02:19.506Z,10.45
2023-02-21T22:04:48.215Z,9.36
2023-02-21T22:07:16.079Z,8.22
2023-02-21T22:09:44.280Z,7.43
2023-02-21T22:12:17.109Z,6.77
2023-02-21T22:14:45.054Z,6.56
2023-02-21T22:17:13.021Z,7.95
2023-02-21T22:19:40.920Z,9.23
2023-02-21T22:22:08.884Z,9.70
2023-02-21T22:24:40.640Z,8.57
2023-02-21T22:27:08.603Z,7.38
2023-02-21T22:29:36.973Z,6.63
2023-02-21T22:32:04.952Z,6.53
2023-02-21T22:34:32.900Z,8.15
2023-02-21T22:37:00.816Z,9.71
2023-02-21T22:39:28.785Z,10.24
2023-02-21T22:41:56.712Z,9.19
2023-02-21T22:44:25.085Z,8.05
2023-02-21T22:46:59.965Z,7.24
2023-02-21T22:49:28.723Z,7.06
2023-02-21T22:51:57.907Z,8.59
2023-02-21T22:54:26.865Z,9.89
2023-02-21T22:57:00.959Z,10.33
2023-02-21T22:59:29.017Z,9.03
2023-02-21T23:01:59.719Z,7.85
2023-02-21T23:04:27.731Z,7.24
2023-02-21T23:06:58.563Z,8.37
2023-02-21T23:09:28.695Z,9.69
2023-02-21T23:11:59.601Z,10.04
2023-02-21T23:14:31.677Z,8.84
2023-02-21T23:16:59.975Z,7.68
2023-02-21T23:19:30.324Z,7.41
2023-02-21T23:21:58.302Z,8.81
2023-02-21T23:24:26.512Z,9.84
2023-02-21T23:26:54.939Z,9.91
2023-02-21T23:29:25.768Z,8.73
2023-02-21T23:31:58.079Z,7.68
2023-02-21T23:34:40.356Z,8.25
2023-02-21T23:37:12.633Z,9.46
2023-02-21T23:39:41.991Z,10.11
2023-02-21T23:42:11.251Z,9.04
2023-02-21T23:44:39.552Z,7.84
2023-02-21T23:47:07.480Z,7.48
2023-02-21T23:49:35.363Z,8.90
2023-02-21T23:52:03.315Z,10.08
2023-02-21T23:54:31.253Z,10.31
2023-02-21T23:57:00.808Z,9.19
2023-02-21T23:59:29.194Z,8.02
